createdAt,value
2023-03-05T00:02:21.431Z,3.66
2023-03-05T00:04:57.717Z,3.37
2023-03-05T00:07:31.925Z,3.42
2023-03-05T00:10:08.078Z,3.50
2023-03-05T00:12:42.440Z,3.38
2023-03-05T00:15:17.100Z,3.41
2023-03-05T00:17:51.295Z,3.38
2023-03-05T00:20:27.272Z,3.31
2023-03-05T00:23:02.195Z,3.36
2023-03-05T00:25:37.124Z,3.36
2023-03-05T00:28:11.847Z,3.29
2023-03-05T00:30:46.430Z,3.29
2023-03-05T00:33:21.732Z,3.46
2023-03-05T00:35:58.763Z,3.34
2023-03-05T00:38:32.999Z,3.27
2023-03-05T00:41:07.788Z,3.29
2023-03-05T00:43:42.403Z,3.27
2023-03-05T00:46:17.635Z,3.09
2023-03-05T00:48:51.916Z,3.06
2023-03-05T00:51:28.752Z,3.07
2023-03-05T00:54:02.987Z,2.97
2023-03-05T00:56:37.656Z,3.01
2023-03-05T00:59:12.105Z,2.96
2023-03-05T01:01:47.205Z,2.90
2023-03-05T01:04:21.790Z,2.97
2023-03-05T01:06:57.784Z,3.02
2023-03-05T01:09:32.178Z,3.02
2023-03-05T01:12:07.983Z,3.07
2023-03-05T01:14:42.216Z,3.09
2023-03-05T01:17:16.829Z,3.02
2023-03-05T01:19:51.011Z,2.97
2023-03-05T01:22:27.145Z,2.93
2023-03-05T01:25:01.807Z,2.94
2023-03-05T01:27:36.373Z,2.93
2023-03-05T01:30:13.064Z,3.02
2023-03-05T01:32:47.984Z,3.15
2023-03-05T01:35:25.416Z,3.10
2023-03-05T01:38:01.578Z,3.09
2023-03-05T01:40:35.825Z,3.32
2023-03-05T01:43:24.393Z,3.46
2023-03-05T01:46:26.898Z,3.33
2023-03-05T01:49:10.082Z,3.18
2023-03-05T01:51:51.348Z,3.48
2023-03-05T01:54:33.682Z,3.47
2023-03-05T01:57:13.135Z,3.49
2023-03-05T01:59:52.235Z,3.57
2023-03-05T02:02:26.793Z,3.61
2023-03-05T02:05:06.034Z,3.34
2023-03-05T02:07:43.132Z,3.60
2023-03-05T02:10:21.458Z,3.49
2023-03-05T02:12:59.924Z,3.29
2023-03-05T02:15:35.578Z,3.39
2023-03-05T02:18:11.094Z,3.11
2023-03-05T02:20:50.427Z,3.25
2023-03-05T02:23:28.997Z,3.25
2023-03-05T02:26:04.586Z,3.25
2023-03-05T02:28:43.300Z,3.19
2023-03-05T02:31:20.471Z,3.31
2023-03-05T02:33:56.443Z,3.26
2023-03-05T02:36:31.331Z,3.24
2023-03-05T02:39:09.004Z,3.32
2023-03-05T02:41:43.760Z,3.27
2023-03-05T02:44:18.378Z,3.22
2023-03-05T02:46:53.066Z,3.28
2023-03-05T02:49:27.316Z,3.23
2023-03-05T02:52:01.927Z,3.22
2023-03-05T02:54:37.529Z,3.28
2023-03-05T02:57:12.106Z,3.40
2023-03-05T02:59:47.083Z,3.35
2023-03-05T03:02:22.127Z,3.31
2023-03-05T03:04:56.473Z,3.44
2023-03-05T03:07:31.104Z,3.43
2023-03-05T03:10:07.813Z,3.34
2023-03-05T03:12:43.916Z,3.49
2023-03-05T03:15:19.118Z,3.50
2023-03-05T03:17:53.624Z,3.43
2023-03-05T03:20:27.758Z,3.47
2023-03-05T03:23:02.620Z,3.39
2023-03-05T03:25:38.194Z,3.52
2023-03-05T03:28:12.757Z,3.47
2023-03-05T03:30:47.091Z,3.51
2023-03-05T03:33:21.966Z,3.50
2023-03-05T03:35:56.217Z,3.40
2023-03-05T03:38:30.975Z,3.53
2023-03-05T03:41:09.034Z,3.57
2023-03-05T03:43:43.631Z,3.66
2023-03-05T03:46:17.953Z,3.63
2023-03-05T03:48:52.959Z,3.66
2023-03-05T03:51:27.270Z,3.65
2023-03-05T03:54:02.161Z,3.60
2023-03-05T03:56:38.799Z,3.70
2023-03-05T03:59:14.473Z,3.71
2023-03-05T04:01:48.954Z,3.63
2023-03-05T04:04:23.634Z,3.70
2023-03-05T04:06:58.020Z,3.85
2023-03-05T04:09:32.742Z,3.89
2023-03-05T04:12:09.284Z,3.97
2023-03-05T04:14:43.826Z,3.81
2023-03-05T04:17:18.634Z,3.82
2023-03-05T04:19:53.266Z,3.79
2023-03-05T04:22:27.612Z,3.70
2023-03-05T04:25:03.891Z,3.80
2023-03-05T04:27:40.501Z,3.73
2023-03-05T04:30:15.928Z,3.86
2023-03-05T04:32:50.154Z,3.84
2023-03-05T04:35:25.138Z,3.77
2023-03-05T04:37:59.354Z,3.77
2023-03-05T04:40:33.928Z,3.79
2023-03-05T04:43:09.696Z,4.06
2023-03-05T04:45:45.198Z,4.00
2023-03-05T04:48:19.429Z,3.97
2023-03-05T04:50:54.166Z,4.02
2023-03-05T04:53:28.429Z,4.01
2023-03-05T04:56:02.929Z,4.03
2023-03-05T04:58:38.505Z,4.02
2023-03-05T05:01:13.103Z,4.27
2023-03-05T05:03:47.307Z,4.19
2023-03-05T05:06:21.886Z,4.09
2023-03-05T05:08:56.180Z,4.10
2023-03-05T05:11:30.756Z,4.02
2023-03-05T05:14:06.400Z,4.18
2023-03-05T05:16:40.935Z,4.17
2023-03-05T05:19:16.075Z,4.17
2023-03-05T05:21:50.741Z,4.21
2023-03-05T05:24:25.128Z,4.19
2023-03-05T05:26:59.748Z,4.11
2023-03-05T05:29:35.414Z,4.28
2023-03-05T05:32:10.020Z,4.35
2023-03-05T05:34:44.268Z,4.25
2023-03-05T05:37:18.648Z,4.23
2023-03-05T05:39:53.072Z,4.12
2023-03-05T05:42:29.577Z,4.33
2023-03-05T05:45:06.285Z,4.46
2023-03-05T05:47:40.994Z,4.30
2023-03-05T05:50:16.548Z,4.06
2023-03-05T05:52:52.970Z,4.30
2023-03-05T05:55:27.330Z,4.24
2023-03-05T05:58:01.921Z,4.22
2023-03-05T06:00:37.578Z,4.10
2023-03-05T06:03:12.190Z,4.01
2023-03-05T06:05:47.789Z,4.12
2023-03-05T06:08:22.379Z,4.10
2023-03-05T06:10:57.187Z,4.07
2023-03-05T06:13:31.718Z,4.22
2023-03-05T06:16:10.375Z,4.21
2023-03-05T06:18:45.464Z,7.00
2023-03-05T06:21:21.225Z,5.90
2023-03-05T06:23:55.724Z,5.30
2023-03-05T06:26:29.984Z,4.96
2023-03-05T06:29:04.782Z,4.71
2023-03-05T06:31:40.649Z,4.56
2023-03-05T06:34:15.129Z,4.64
2023-03-05T06:36:50.019Z,4.64
2023-03-05T06:39:24.607Z,4.54
2023-03-05T06:41:59.161Z,4.61
2023-03-05T06:44:33.648Z,4.66
2023-03-05T06:47:10.645Z,4.81
2023-03-05T06:49:45.218Z,4.74
2023-03-05T06:52:19.450Z,4.66
2023-03-05T06:54:55.873Z,4.87
2023-03-05T06:57:30.195Z,4.79
2023-03-05T07:00:09.496Z,4.73
2023-03-05T07:03:25.266Z,5.28
2023-03-05T07:06:04.210Z,5.28
2023-03-05T07:08:39.621Z,4.82
2023-03-05T07:11:16.288Z,4.81
2023-03-05T07:13:51.717Z,4.82
2023-03-05T07:16:28.333Z,4.94
2023-03-05T07:19:07.502Z,6.87
2023-03-05T07:21:45.922Z,8.17
2023-03-05T07:24:20.273Z,7.32
2023-03-05T07:26:54.763Z,10.13
2023-03-05T07:29:29.948Z,8.49
2023-03-05T07:32:04.697Z,7.70
2023-03-05T07:34:40.710Z,7.05
2023-03-05T07:37:15.376Z,6.70
2023-03-05T07:39:49.856Z,6.32
2023-03-05T07:42:24.582Z,5.97
2023-03-05T07:45:01.195Z,6.00
2023-03-05T07:47:37.308Z,5.66
2023-03-05T07:50:13.447Z,5.92
2023-03-05T07:52:47.975Z,5.87
2023-03-05T07:55:22.287Z,5.80
2023-03-05T07:57:56.847Z,5.49
2023-03-05T08:00:31.224Z,5.43
2023-03-05T08:03:06.112Z,5.40
2023-03-05T08:05:42.671Z,5.27
2023-03-05T08:08:17.221Z,7.00
2023-03-05T08:10:51.482Z,6.45
2023-03-05T08:13:26.037Z,5.93
2023-03-05T08:16:00.328Z,5.50
2023-03-05T08:18:35.845Z,5.32
2023-03-05T08:21:18.819Z,5.48
2023-03-05T08:23:53.661Z,5.60
2023-03-05T08:26:30.447Z,7.24
2023-03-05T08:29:05.627Z,6.05
2023-03-05T08:31:40.760Z,5.96
2023-03-05T08:34:15.348Z,5.75
2023-03-05T08:36:50.917Z,5.54
2023-03-05T08:39:25.656Z,5.71
2023-03-05T08:41:59.892Z,5.70
2023-03-05T08:44:34.514Z,5.49
2023-03-05T08:47:08.909Z,5.53
2023-03-05T08:49:43.476Z,5.51
2023-03-05T08:52:19.106Z,5.47
2023-03-05T08:54:53.622Z,5.56
2023-03-05T08:57:27.945Z,5.57
2023-03-05T09:00:02.585Z,5.46
2023-03-05T09:02:37.805Z,5.33
2023-03-05T09:05:12.920Z,5.34
2023-03-05T09:07:48.654Z,5.61
2023-03-05T09:10:23.409Z,5.52
2023-03-05T09:12:57.748Z,5.59
2023-03-05T09:15:32.826Z,5.64
2023-03-05T09:18:09.096Z,5.49
2023-03-05T09:20:43.569Z,5.74
2023-03-05T09:23:19.317Z,8.09
2023-03-05T09:25:53.919Z,8.07
2023-03-05T09:28:28.458Z,6.79
2023-03-05T09:31:04.896Z,6.32
2023-03-05T09:33:40.286Z,6.28
2023-03-05T09:36:20.871Z,6.29
2023-03-05T09:38:56.555Z,6.08
2023-03-05T09:41:41.149Z,6.03
2023-03-05T09:44:27.750Z,6.13
2023-03-05T09:47:14.738Z,5.85
2023-03-05T09:49:59.128Z,5.94
2023-03-05T09:52:42.561Z,6.07
2023-03-05T09:55:26.431Z,6.18
2023-03-05T09:58:07.454Z,6.18
2023-03-05T10:00:45.262Z,6.13
2023-03-05T10:03:26.928Z,6.18
2023-03-05T10:06:07.859Z,6.46
2023-03-05T10:08:50.177Z,6.40
2023-03-05T10:11:50.577Z,6.37
2023-03-05T10:14:30.642Z,6.45
2023-03-05T10:17:39.121Z,6.66
2023-03-05T10:20:28.491Z,6.58
2023-03-05T10:23:32.000Z,6.75
2023-03-05T10:26:22.795Z,6.60
2023-03-05T10:29:11.884Z,6.51
2023-03-05T10:31:59.109Z,6.46
2023-03-05T10:34:57.557Z,6.46
2023-03-05T10:38:03.736Z,6.44
2023-03-05T10:40:47.049Z,6.47
2023-03-05T10:43:30.078Z,6.77
2023-03-05T10:46:06.910Z,7.03
2023-03-05T10:48:45.590Z,6.98
2023-03-05T10:51:24.281Z,6.90
2023-03-05T10:54:01.131Z,7.12
2023-03-05T10:56:35.386Z,7.31
2023-03-05T10:59:10.140Z,7.21
2023-03-05T11:02:05.087Z,7.33
2023-03-05T11:04:41.844Z,7.27
2023-03-05T11:07:33.922Z,7.18
2023-03-05T11:10:21.605Z,7.29
2023-03-05T11:12:58.033Z,7.43
2023-03-05T11:15:32.746Z,7.27
2023-03-05T11:18:24.245Z,7.35
2023-03-05T11:21:10.412Z,7.28
2023-03-05T11:23:44.779Z,7.22
2023-03-05T11:26:23.514Z,7.18
2023-03-05T11:28:59.934Z,7.17
2023-03-05T11:31:35.723Z,7.15
2023-03-05T11:34:25.268Z,7.11
2023-03-05T11:37:08.150Z,7.19
2023-03-05T11:39:42.986Z,7.13
2023-03-05T11:42:25.396Z,7.20
2023-03-05T11:45:01.393Z,7.19
2023-03-05T11:47:43.905Z,7.14
2023-03-05T11:50:26.110Z,7.23
2023-03-05T11:53:07.256Z,7.17
2023-03-05T11:55:43.865Z,7.15
2023-03-05T11:58:32.382Z,7.32
2023-03-05T12:01:17.372Z,7.35
2023-03-05T12:03:55.797Z,7.19
2023-03-05T12:06:37.783Z,7.17
2023-03-05T12:09:20.890Z,7.12
2023-03-05T12:12:02.462Z,7.36
2023-03-05T12:14:45.463Z,7.10
2023-03-05T12:17:27.989Z,7.10
2023-03-05T12:20:08.034Z,7.09
2023-03-05T12:22:45.860Z,7.05
2023-03-05T12:25:35.602Z,7.06
2023-03-05T12:28:16.334Z,7.04
2023-03-05T12:30:59.430Z,7.08
2023-03-05T12:33:36.885Z,7.13
2023-03-05T12:36:37.615Z,7.04
2023-03-05T12:39:52.787Z,7.01
2023-03-05T12:42:48.291Z,7.02
2023-03-05T12:45:36.531Z,6.82
2023-03-05T12:48:46.018Z,6.92
2023-03-05T12:51:40.082Z,6.90
2023-03-05T12:54:32.792Z,7.01
2023-03-05T12:57:18.642Z,6.69
2023-03-05T13:00:00.316Z,7.05
2023-03-05T13:02:38.599Z,6.85
2023-03-05T13:05:20.862Z,6.94
2023-03-05T13:08:10.146Z,7.06
2023-03-05T13:10:51.690Z,7.15
2023-03-05T13:13:28.727Z,7.15
2023-03-05T13:16:04.671Z,6.98
2023-03-05T13:18:47.099Z,6.99
2023-03-05T13:21:27.170Z,6.95
2023-03-05T13:24:03.501Z,8.58
2023-03-05T13:26:40.048Z,8.52
2023-03-05T13:29:17.686Z,7.73
2023-03-05T13:31:56.096Z,7.63
2023-03-05T13:34:46.226Z,7.45
2023-03-05T13:37:25.329Z,7.20
2023-03-05T13:40:05.025Z,7.26
2023-03-05T13:42:40.166Z,8.95
2023-03-05T13:45:28.384Z,9.87
2023-03-05T13:48:04.846Z,9.02
2023-03-05T13:50:41.512Z,8.04
2023-03-05T13:53:18.198Z,7.51
2023-03-05T13:55:55.468Z,7.33
2023-03-05T13:58:53.483Z,7.19
2023-03-05T14:01:31.835Z,7.18
2023-03-05T14:04:10.284Z,7.11
2023-03-05T14:06:52.982Z,6.99
2023-03-05T14:09:29.415Z,7.08
2023-03-05T14:12:27.235Z,7.00
2023-03-05T14:15:07.174Z,7.18
2023-03-05T14:17:44.412Z,7.05
2023-03-05T14:20:25.509Z,7.04
2023-03-05T14:23:01.832Z,7.19
2023-03-05T14:25:39.736Z,7.10
2023-03-05T14:28:27.486Z,7.06
2023-03-05T14:31:02.653Z,7.08
2023-03-05T14:33:40.823Z,7.02
2023-03-05T14:36:21.727Z,7.02
2023-03-05T14:38:56.985Z,7.08
2023-03-05T14:41:40.335Z,7.05
2023-03-05T14:44:17.233Z,7.06
2023-03-05T14:46:52.361Z,7.15
2023-03-05T14:49:28.031Z,7.13
2023-03-05T14:52:03.961Z,7.10
2023-03-05T14:54:39.271Z,7.29
2023-03-05T14:57:18.181Z,7.19
2023-03-05T14:59:52.789Z,7.11
2023-03-05T15:03:01.756Z,7.72
2023-03-05T15:05:39.434Z,7.72
2023-03-05T15:08:17.920Z,7.24
2023-03-05T15:10:52.870Z,7.29
2023-03-05T15:13:28.610Z,7.19
2023-03-05T15:16:06.841Z,7.21
2023-03-05T15:18:42.656Z,7.13
2023-03-05T15:21:18.478Z,7.16
2023-03-05T15:23:53.001Z,7.22
2023-03-05T15:26:27.898Z,7.17
2023-03-05T15:29:02.831Z,7.19
2023-03-05T15:31:39.018Z,7.15
2023-03-05T15:34:15.170Z,7.18
2023-03-05T15:36:49.756Z,7.23
2023-03-05T15:39:26.434Z,7.15
2023-03-05T15:42:01.398Z,7.15
2023-03-05T15:44:35.864Z,7.25
2023-03-05T15:47:10.985Z,7.20
2023-03-05T15:49:46.916Z,7.13
2023-03-05T15:52:21.889Z,7.13
2023-03-05T15:54:56.449Z,7.16
2023-03-05T15:57:31.296Z,7.05
2023-03-05T16:00:07.776Z,7.00
2023-03-05T16:02:44.291Z,6.88
2023-03-05T16:05:20.611Z,6.95
2023-03-05T16:07:56.286Z,6.78
2023-03-05T16:10:31.795Z,6.71
2023-03-05T16:13:11.393Z,6.67
2023-03-05T16:15:47.545Z,6.69
2023-03-05T16:18:23.032Z,6.67
2023-03-05T16:20:59.631Z,6.63
2023-03-05T16:23:34.141Z,6.64
2023-03-05T16:26:10.053Z,6.50
2023-03-05T16:28:44.900Z,6.38
2023-03-05T16:31:20.002Z,6.35
2023-03-05T16:33:54.638Z,6.43
2023-03-05T16:36:35.465Z,6.20
2023-03-05T16:39:10.228Z,6.41
2023-03-05T16:41:45.096Z,6.40
2023-03-05T16:44:20.362Z,6.45
2023-03-05T16:46:56.541Z,6.36
2023-03-05T16:49:31.492Z,7.84
2023-03-05T16:52:18.678Z,8.75
2023-03-05T16:54:54.116Z,7.78
2023-03-05T16:57:29.132Z,7.05
2023-03-05T17:00:04.831Z,6.78
2023-03-05T17:02:39.950Z,6.55
2023-03-05T17:05:14.624Z,6.51
2023-03-05T17:07:51.087Z,6.22
2023-03-05T17:10:25.766Z,6.25
2023-03-05T17:13:01.120Z,6.37
2023-03-05T17:15:35.964Z,6.37
2023-03-05T17:18:10.854Z,6.18
2023-03-05T17:20:46.464Z,6.20
2023-03-05T17:23:26.529Z,6.14
2023-03-05T17:26:05.673Z,6.22
2023-03-05T17:28:41.644Z,6.07
2023-03-05T17:31:16.691Z,6.07
2023-03-05T17:33:51.942Z,6.25
2023-03-05T17:36:27.218Z,6.21
2023-03-05T17:39:03.314Z,6.15
2023-03-05T17:41:37.899Z,6.25
2023-03-05T17:44:13.071Z,6.27
2023-03-05T17:46:47.734Z,6.12
2023-03-05T17:49:23.112Z,6.14
2023-03-05T17:51:57.680Z,6.23
2023-03-05T17:54:34.663Z,6.22
2023-03-05T17:57:13.448Z,6.32
2023-03-05T17:59:48.584Z,6.12
2023-03-05T18:02:23.184Z,5.99
2023-03-05T18:04:58.114Z,5.95
2023-03-05T18:07:32.748Z,5.99
2023-03-05T18:10:11.780Z,5.89
2023-03-05T18:12:46.767Z,6.04
2023-03-05T18:15:23.064Z,6.08
2023-03-05T18:17:58.665Z,6.04
2023-03-05T18:20:37.104Z,6.08
2023-03-05T18:23:12.399Z,6.11
2023-03-05T18:25:48.788Z,6.05
2023-03-05T18:28:23.486Z,6.14
2023-03-05T18:30:58.499Z,6.06
2023-03-05T18:33:33.552Z,6.22
2023-03-05T18:36:10.833Z,6.17
2023-03-05T18:38:46.016Z,6.20
2023-03-05T18:41:27.516Z,6.24
2023-03-05T18:44:04.579Z,6.36
2023-03-05T18:46:39.445Z,6.41
2023-03-05T18:49:14.124Z,6.24
2023-03-05T18:51:49.167Z,6.36
2023-03-05T18:54:23.774Z,6.36
2023-03-05T18:57:00.176Z,6.40
2023-03-05T18:59:35.053Z,6.38
2023-03-05T19:02:14.718Z,6.37
2023-03-05T19:04:49.312Z,6.38
2023-03-05T19:07:24.292Z,6.36
2023-03-05T19:10:03.670Z,9.41
2023-03-05T19:12:46.338Z,10.94
2023-03-05T19:15:21.415Z,10.60
2023-03-05T19:17:56.279Z,9.29
2023-03-05T19:20:32.282Z,8.69
2023-03-05T19:23:06.816Z,8.18
2023-03-05T19:25:42.233Z,7.74
2023-03-05T19:28:18.473Z,7.51
2023-03-05T19:30:53.088Z,7.32
2023-03-05T19:33:28.112Z,7.09
2023-03-05T19:36:03.316Z,6.99
2023-03-05T19:38:39.812Z,6.86
2023-03-05T19:41:16.939Z,6.63
2023-03-05T19:43:53.361Z,10.20
2023-03-05T19:46:27.961Z,10.77
2023-03-05T19:49:02.918Z,9.58
2023-03-05T19:51:39.962Z,8.74
2023-03-05T19:54:17.455Z,8.30
2023-03-05T19:56:54.922Z,7.93
2023-03-05T19:59:31.437Z,7.51
2023-03-05T20:02:06.210Z,7.12
2023-03-05T20:04:41.336Z,6.92
2023-03-05T20:07:15.911Z,6.74
2023-03-05T20:09:53.268Z,6.62
2023-03-05T20:12:27.886Z,6.60
2023-03-05T20:15:04.444Z,6.60
2023-03-05T20:17:39.171Z,6.56
2023-03-05T20:20:15.156Z,6.43
2023-03-05T20:22:50.050Z,6.51
2023-03-05T20:25:25.486Z,6.47
2023-03-05T20:28:00.252Z,6.35
2023-03-05T20:30:36.726Z,6.29
2023-03-05T20:33:11.575Z,6.36
2023-03-05T20:35:46.454Z,6.31
2023-03-05T20:38:26.153Z,9.03
2023-03-05T20:41:02.952Z,10.08
2023-03-05T20:43:39.307Z,8.66
2023-03-05T20:46:18.657Z,8.01
2023-03-05T20:48:56.653Z,7.70
2023-03-05T20:51:34.003Z,7.21
2023-03-05T20:54:10.639Z,7.11
2023-03-05T20:56:45.568Z,6.92
2023-03-05T20:59:21.512Z,6.73
2023-03-05T21:01:57.761Z,6.61
2023-03-05T21:04:32.071Z,8.64
2023-03-05T21:07:06.900Z,10.57
2023-03-05T21:09:42.058Z,11.46
2023-03-05T21:12:16.961Z,10.52
2023-03-05T21:14:51.473Z,9.59
2023-03-05T21:17:27.989Z,8.90
2023-03-05T21:20:04.473Z,9.93
2023-03-05T21:22:39.722Z,10.21
2023-03-05T21:25:21.147Z,8.90
2023-03-05T21:27:58.556Z,8.48
2023-03-05T21:30:35.257Z,8.04
2023-03-05T21:33:14.831Z,7.72
2023-03-05T21:35:49.358Z,7.44
2023-03-05T21:38:24.933Z,7.17
2023-03-05T21:41:00.382Z,6.98
2023-03-05T21:43:35.390Z,6.94
2023-03-05T21:46:11.165Z,6.76
2023-03-05T21:48:47.360Z,6.58
2023-03-05T21:51:26.866Z,6.57
2023-03-05T21:54:01.329Z,6.56
2023-03-05T21:56:35.580Z,6.36
2023-03-05T21:59:10.073Z,6.32
2023-03-05T22:01:44.432Z,6.32
2023-03-05T22:04:20.384Z,6.23
2023-03-05T22:07:04.119Z,6.10
2023-03-05T22:09:40.046Z,6.13
2023-03-05T22:12:20.308Z,5.95
2023-03-05T22:14:54.864Z,5.88
2023-03-05T22:17:29.130Z,5.95
2023-03-05T22:20:05.767Z,5.96
2023-03-05T22:22:40.072Z,5.94
2023-03-05T22:25:16.636Z,5.69
2023-03-05T22:27:50.888Z,5.55
2023-03-05T22:30:25.837Z,5.59
2023-03-05T22:33:00.372Z,5.67
2023-03-05T22:35:36.661Z,5.70
2023-03-05T22:38:11.290Z,5.57
2023-03-05T22:40:48.320Z,5.58
2023-03-05T22:43:22.878Z,5.50
2023-03-05T22:45:57.371Z,5.57
2023-03-05T22:48:31.667Z,5.55
2023-03-05T22:51:08.205Z,5.66
2023-03-05T22:53:42.856Z,5.56
2023-03-05T22:56:19.186Z,5.49
2023-03-05T22:58:53.461Z,5.50
2023-03-05T23:02:57.954Z,6.08
2023-03-05T23:05:33.057Z,6.08
2023-03-05T23:08:07.699Z,5.51
2023-03-05T23:10:42.255Z,5.44
2023-03-05T23:13:17.089Z,5.38
2023-03-05T23:15:51.613Z,5.32
2023-03-05T23:18:27.409Z,5.38
2023-03-05T23:21:01.872Z,5.35
2023-03-05T23:23:36.411Z,5.44
2023-03-05T23:26:11.278Z,5.47
2023-03-05T23:28:45.574Z,5.44
2023-03-05T23:31:20.569Z,5.42
2023-03-05T23:33:56.343Z,5.53
2023-03-05T23:36:30.868Z,5.56
2023-03-05T23:39:05.297Z,5.48
2023-03-05T23:41:40.108Z,5.59
2023-03-05T23:44:14.350Z,5.51
2023-03-05T23:46:48.916Z,5.54
2023-03-05T23:49:24.600Z,5.60
2023-03-05T23:51:59.313Z,5.56
2023-03-05T23:54:33.654Z,5.60
2023-03-05T23:57:08.156Z,5.68
2023-03-05T23:59:42.411Z,5.50
